sensor_id;sensor_type;location;lat;lon;timestamp;P1;durP1;ratioP1;P2;durP2;ratioP2
52934;SDS011;38802;50.198;19.796;2023-04-24T00:01:07;7.60;;;6.70;;
52934;SDS011;38802;50.198;19.796;2023-04-24T00:03:36;6.80;;;6.20;;
52934;SDS011;38802;50.198;19.796;2023-04-24T00:06:05;7.70;;;6.50;;
52934;SDS011;38802;50.198;19.796;2023-04-24T00:08:35;8.00;;;6.60;;
52934;SDS011;38802;50.198;19.796;2023-04-24T00:11:04;9.50;;;7.10;;
52934;SDS011;38802;50.198;19.796;2023-04-24T00:13:32;10.30;;;7.10;;
52934;SDS011;38802;50.198;19.796;2023-04-24T00:16:00;7.60;;;6.80;;
52934;SDS011;38802;50.198;19.796;2023-04-24T00:18:28;9.10;;;7.60;;
52934;SDS011;38802;50.198;19.796;2023-04-24T00:20:56;9.20;;;7.10;;
52934;SDS011;38802;50.198;19.796;2023-04-24T00:23:24;8.50;;;7.70;;
52934;SDS011;38802;50.198;19.796;2023-04-24T00:25:52;9.20;;;7.30;;
52934;SDS011;38802;50.198;19.796;2023-04-24T00:28:20;9.10;;;7.20;;
52934;SDS011;38802;50.198;19.796;2023-04-24T00:30:48;8.30;;;6.90;;
52934;SDS011;38802;50.198;19.796;2023-04-24T00:33:16;9.00;;;8.00;;
52934;SDS011;38802;50.198;19.796;2023-04-24T00:35:44;11.10;;;7.30;;
52934;SDS011;38802;50.198;19.796;2023-04-24T00:38:12;11.20;;;6.80;;
52934;SDS011;38802;50.198;19.796;2023-04-24T00:40:40;8.30;;;7.30;;
52934;SDS011;38802;50.198;19.796;2023-04-24T00:43:08;7.90;;;7.10;;
52934;SDS011;38802;50.198;19.796;2023-04-24T00:45:37;7.40;;;6.20;;
52934;SDS011;38802;50.198;19.796;2023-04-24T00:48:05;13.30;;;6.80;;
52934;SDS011;38802;50.198;19.796;2023-04-24T00:50:35;8.60;;;6.70;;
52934;SDS011;38802;50.198;19.796;2023-04-24T00:53:04;7.00;;;6.10;;
52934;SDS011;38802;50.198;19.796;2023-04-24T00:55:32;7.20;;;5.60;;
52934;SDS011;38802;50.198;19.796;2023-04-24T00:58:01;6.40;;;5.60;;
52934;SDS011;38802;50.198;19.796;2023-04-24T01:00:29;9.30;;;5.90;;
52934;SDS011;38802;50.198;19.796;2023-04-24T01:02:59;7.50;;;6.30;;
52934;SDS011;38802;50.198;19.796;2023-04-24T01:05:33;9.80;;;6.20;;
52934;SDS011;38802;50.198;19.796;2023-04-24T01:08:01;10.40;;;6.80;;
52934;SDS011;38802;50.198;19.796;2023-04-24T01:10:31;7.10;;;6.40;;
52934;SDS011;38802;50.198;19.796;2023-04-24T01:13:01;7.10;;;5.70;;
52934;SDS011;38802;50.198;19.796;2023-04-24T01:15:31;5.90;;;5.40;;
52934;SDS011;38802;50.198;19.796;2023-04-24T01:18:00;8.10;;;5.80;;
52934;SDS011;38802;50.198;19.796;2023-04-24T01:20:33;10.00;;;6.80;;
52934;SDS011;38802;50.198;19.796;2023-04-24T01:23:04;6.30;;;5.70;;
52934;SDS011;38802;50.198;19.796;2023-04-24T01:25:32;8.30;;;5.80;;
52934;SDS011;38802;50.198;19.796;2023-04-24T01:28:00;6.40;;;5.50;;
52934;SDS011;38802;50.198;19.796;2023-04-24T01:30:29;7.60;;;5.70;;
52934;SDS011;38802;50.198;19.796;2023-04-24T01:32:58;6.60;;;6.00;;
52934;SDS011;38802;50.198;19.796;2023-04-24T01:35:26;7.30;;;5.90;;
52934;SDS011;38802;50.198;19.796;2023-04-24T01:37:54;7.50;;;4.90;;
52934;SDS011;38802;50.198;19.796;2023-04-24T01:40:24;6.60;;;6.00;;
52934;SDS011;38802;50.198;19.796;2023-04-24T01:42:52;10.60;;;5.60;;
52934;SDS011;38802;50.198;19.796;2023-04-24T01:45:22;6.00;;;5.40;;
52934;SDS011;38802;50.198;19.796;2023-04-24T01:47:50;8.20;;;5.70;;
52934;SDS011;38802;50.198;19.796;2023-04-24T01:50:18;7.90;;;5.70;;
52934;SDS011;38802;50.198;19.796;2023-04-24T01:52:46;6.00;;;5.20;;
52934;SDS011;38802;50.198;19.796;2023-04-24T01:55:15;5.60;;;5.20;;
52934;SDS011;38802;50.198;19.796;2023-04-24T01:57:45;6.60;;;5.90;;
52934;SDS011;38802;50.198;19.796;2023-04-24T02:00:13;6.60;;;6.00;;
52934;SDS011;38802;50.198;19.796;2023-04-24T02:02:42;7.60;;;6.00;;
52934;SDS011;38802;50.198;19.796;2023-04-24T02:05:14;6.50;;;5.90;;
52934;SDS011;38802;50.198;19.796;2023-04-24T02:07:42;5.80;;;5.30;;
52934;SDS011;38802;50.198;19.796;2023-04-24T02:10:10;11.10;;;5.50;;
52934;SDS011;38802;50.198;19.796;2023-04-24T02:12:42;8.10;;;5.20;;
52934;SDS011;38802;50.198;19.796;2023-04-24T02:15:10;7.10;;;4.60;;
52934;SDS011;38802;50.198;19.796;2023-04-24T02:17:39;8.80;;;5.30;;
52934;SDS011;38802;50.198;19.796;2023-04-24T02:20:09;6.60;;;5.10;;
52934;SDS011;38802;50.198;19.796;2023-04-24T02:22:38;6.30;;;5.50;;
52934;SDS011;38802;50.198;19.796;2023-04-24T02:25:08;6.70;;;5.90;;
52934;SDS011;38802;50.198;19.796;2023-04-24T02:27:37;6.20;;;5.20;;
52934;SDS011;38802;50.198;19.796;2023-04-24T02:30:06;8.90;;;5.70;;
52934;SDS011;38802;50.198;19.796;2023-04-24T02:32:37;9.00;;;5.10;;
52934;SDS011;38802;50.198;19.796;2023-04-24T02:35:06;7.30;;;5.20;;
52934;SDS011;38802;50.198;19.796;2023-04-24T02:37:35;5.20;;;4.40;;
52934;SDS011;38802;50.198;19.796;2023-04-24T02:40:07;5.80;;;5.30;;
52934;SDS011;38802;50.198;19.796;2023-04-24T02:42:39;6.50;;;4.60;;
52934;SDS011;38802;50.198;19.796;2023-04-24T02:45:09;7.50;;;5.30;;
52934;SDS011;38802;50.198;19.796;2023-04-24T02:47:38;5.00;;;4.40;;
52934;SDS011;38802;50.198;19.796;2023-04-24T02:50:06;6.80;;;5.20;;
52934;SDS011;38802;50.198;19.796;2023-04-24T02:52:34;8.90;;;5.00;;
52934;SDS011;38802;50.198;19.796;2023-04-24T02:55:03;5.10;;;4.60;;
52934;SDS011;38802;50.198;19.796;2023-04-24T02:57:31;5.50;;;5.00;;
52934;SDS011;38802;50.198;19.796;2023-04-24T03:10:58;6.10;;;4.90;;
52934;SDS011;38802;50.198;19.796;2023-04-24T03:13:26;6.10;;;5.20;;
52934;SDS011;38802;50.198;19.796;2023-04-24T03:15:54;5.30;;;4.80;;
52934;SDS011;38802;50.198;19.796;2023-04-24T03:18:23;9.40;;;6.00;;
52934;SDS011;38802;50.198;19.796;2023-04-24T03:20:53;6.40;;;5.40;;
52934;SDS011;38802;50.198;19.796;2023-04-24T03:23:21;6.00;;;4.40;;
52934;SDS011;38802;50.198;19.796;2023-04-24T03:25:49;6.10;;;5.50;;
52934;SDS011;38802;50.198;19.796;2023-04-24T03:28:17;5.50;;;5.00;;
52934;SDS011;38802;50.198;19.796;2023-04-24T03:30:50;8.20;;;5.20;;
52934;SDS011;38802;50.198;19.796;2023-04-24T03:33:20;10.10;;;5.10;;
52934;SDS011;38802;50.198;19.796;2023-04-24T03:35:55;7.70;;;5.20;;
52934;SDS011;38802;50.198;19.796;2023-04-24T03:38:24;7.20;;;5.60;;
52934;SDS011;38802;50.198;19.796;2023-04-24T03:41:10;7.10;;;5.80;;
52934;SDS011;38802;50.198;19.796;2023-04-24T03:43:46;5.00;;;4.50;;
52934;SDS011;38802;50.198;19.796;2023-04-24T03:46:14;5.80;;;5.20;;
52934;SDS011;38802;50.198;19.796;2023-04-24T03:48:47;7.20;;;6.00;;
52934;SDS011;38802;50.198;19.796;2023-04-24T03:51:20;6.10;;;5.50;;
52934;SDS011;38802;50.198;19.796;2023-04-24T03:53:50;6.70;;;5.60;;
52934;SDS011;38802;50.198;19.796;2023-04-24T03:56:20;8.30;;;5.50;;
52934;SDS011;38802;50.198;19.796;2023-04-24T03:58:50;6.00;;;5.40;;
52934;SDS011;38802;50.198;19.796;2023-04-24T04:01:18;5.70;;;5.30;;
52934;SDS011;38802;50.198;19.796;2023-04-24T04:04:08;6.00;;;5.20;;
52934;SDS011;38802;50.198;19.796;2023-04-24T04:06:37;7.90;;;5.30;;
52934;SDS011;38802;50.198;19.796;2023-04-24T04:09:05;8.00;;;5.20;;
52934;SDS011;38802;50.198;19.796;2023-04-24T04:11:36;7.00;;;5.50;;
52934;SDS011;38802;50.198;19.796;2023-04-24T04:14:04;8.20;;;5.50;;
52934;SDS011;38802;50.198;19.796;2023-04-24T04:16:33;5.20;;;4.70;;
52934;SDS011;38802;50.198;19.796;2023-04-24T04:19:03;4.90;;;4.50;;
52934;SDS011;38802;50.198;19.796;2023-04-24T04:21:31;5.70;;;5.20;;
52934;SDS011;38802;50.198;19.796;2023-04-24T04:24:22;5.60;;;5.10;;
52934;SDS011;38802;50.198;19.796;2023-04-24T04:26:52;5.20;;;4.70;;
52934;SDS011;38802;50.198;19.796;2023-04-24T04:29:34;6.80;;;4.50;;
52934;SDS011;38802;50.198;19.796;2023-04-24T04:32:04;6.20;;;5.00;;
52934;SDS011;38802;50.198;19.796;2023-04-24T04:34:33;4.50;;;4.10;;
52934;SDS011;38802;50.198;19.796;2023-04-24T04:37:01;5.20;;;4.70;;
52934;SDS011;38802;50.198;19.796;2023-04-24T04:39:49;5.90;;;4.20;;
52934;SDS011;38802;50.198;19.796;2023-04-24T04:42:20;8.60;;;5.30;;
52934;SDS011;38802;50.198;19.796;2023-04-24T04:44:50;10.60;;;5.10;;
52934;SDS011;38802;50.198;19.796;2023-04-24T04:47:21;7.40;;;5.00;;
52934;SDS011;38802;50.198;19.796;2023-04-24T04:49:51;6.50;;;4.90;;
52934;SDS011;38802;50.198;19.796;2023-04-24T04:52:22;5.70;;;4.40;;
52934;SDS011;38802;50.198;19.796;2023-04-24T04:54:57;8.50;;;4.50;;
52934;SDS011;38802;50.198;19.796;2023-04-24T04:57:30;5.80;;;5.40;;
52934;SDS011;38802;50.198;19.796;2023-04-24T04:59:59;6.30;;;3.80;;
52934;SDS011;38802;50.198;19.796;2023-04-24T05:02:38;5.10;;;4.30;;
52934;SDS011;38802;50.198;19.796;2023-04-24T05:05:07;4.90;;;4.50;;
52934;SDS011;38802;50.198;19.796;2023-04-24T05:07:36;5.30;;;4.60;;
52934;SDS011;38802;50.198;19.796;2023-04-24T05:10:05;8.20;;;4.30;;
52934;SDS011;38802;50.198;19.796;2023-04-24T05:12:34;5.60;;;3.90;;
52934;SDS011;38802;50.198;19.796;2023-04-24T05:15:03;6.00;;;4.30;;
52934;SDS011;38802;50.198;19.796;2023-04-24T05:17:31;5.50;;;5.00;;
52934;SDS011;38802;50.198;19.796;2023-04-24T05:19:59;9.20;;;4.60;;
52934;SDS011;38802;50.198;19.796;2023-04-24T05:22:29;6.70;;;4.60;;
52934;SDS011;38802;50.198;19.796;2023-04-24T05:24:58;5.00;;;4.30;;
52934;SDS011;38802;50.198;19.796;2023-04-24T05:27:36;8.10;;;4.60;;
52934;SDS011;38802;50.198;19.796;2023-04-24T05:30:08;5.70;;;4.20;;
52934;SDS011;38802;50.198;19.796;2023-04-24T05:32:37;6.90;;;4.40;;
52934;SDS011;38802;50.198;19.796;2023-04-24T05:35:05;4.90;;;4.30;;
52934;SDS011;38802;50.198;19.796;2023-04-24T05:37:34;7.70;;;4.40;;
52934;SDS011;38802;50.198;19.796;2023-04-24T05:40:02;5.30;;;4.30;;
52934;SDS011;38802;50.198;19.796;2023-04-24T05:42:33;4.90;;;4.20;;
52934;SDS011;38802;50.198;19.796;2023-04-24T05:45:00;6.90;;;5.60;;
52934;SDS011;38802;50.198;19.796;2023-04-24T05:47:29;11.90;;;5.20;;
52934;SDS011;38802;50.198;19.796;2023-04-24T05:49:57;7.40;;;5.40;;
52934;SDS011;38802;50.198;19.796;2023-04-24T05:52:25;11.90;;;5.00;;
52934;SDS011;38802;50.198;19.796;2023-04-24T05:54:53;8.10;;;5.70;;
52934;SDS011;38802;50.198;19.796;2023-04-24T05:57:23;8.70;;;5.00;;
52934;SDS011;38802;50.198;19.796;2023-04-24T05:59:54;6.00;;;4.90;;
52934;SDS011;38802;50.198;19.796;2023-04-24T06:02:23;5.70;;;5.10;;
52934;SDS011;38802;50.198;19.796;2023-04-24T06:04:52;8.10;;;5.70;;
52934;SDS011;38802;50.198;19.796;2023-04-24T06:07:20;10.90;;;5.40;;
52934;SDS011;38802;50.198;19.796;2023-04-24T06:09:48;9.00;;;5.00;;
52934;SDS011;38802;50.198;19.796;2023-04-24T06:12:17;8.00;;;5.40;;
52934;SDS011;38802;50.198;19.796;2023-04-24T06:14:55;6.60;;;4.10;;
52934;SDS011;38802;50.198;19.796;2023-04-24T06:17:43;4.60;;;4.10;;
52934;SDS011;38802;50.198;19.796;2023-04-24T06:20:12;5.80;;;5.20;;
52934;SDS011;38802;50.198;19.796;2023-04-24T06:22:40;4.70;;;4.10;;
52934;SDS011;38802;50.198;19.796;2023-04-24T06:25:10;5.00;;;4.40;;
52934;SDS011;38802;50.198;19.796;2023-04-24T06:27:38;7.30;;;4.30;;
52934;SDS011;38802;50.198;19.796;2023-04-24T06:30:08;4.90;;;3.80;;
52934;SDS011;38802;50.198;19.796;2023-04-24T06:32:36;4.50;;;3.70;;
52934;SDS011;38802;50.198;19.796;2023-04-24T06:35:04;3.60;;;3.30;;
52934;SDS011;38802;50.198;19.796;2023-04-24T06:37:35;4.90;;;4.40;;
52934;SDS011;38802;50.198;19.796;2023-04-24T06:40:04;5.70;;;3.40;;
52934;SDS011;38802;50.198;19.796;2023-04-24T06:42:35;4.60;;;4.00;;
52934;SDS011;38802;50.198;19.796;2023-04-24T06:45:04;5.40;;;3.20;;
52934;SDS011;38802;50.198;19.796;2023-04-24T06:47:33;3.40;;;3.00;;
52934;SDS011;38802;50.198;19.796;2023-04-24T06:50:01;5.40;;;3.60;;
52934;SDS011;38802;50.198;19.796;2023-04-24T06:52:29;5.00;;;3.50;;
52934;SDS011;38802;50.198;19.796;2023-04-24T06:55:01;4.20;;;3.80;;
52934;SDS011;38802;50.198;19.796;2023-04-24T06:57:30;6.10;;;3.40;;
52934;SDS011;38802;50.198;19.796;2023-04-24T06:59:59;4.10;;;3.50;;
52934;SDS011;38802;50.198;19.796;2023-04-24T07:02:27;3.90;;;3.50;;
52934;SDS011;38802;50.198;19.796;2023-04-24T07:04:55;6.30;;;3.70;;
52934;SDS011;38802;50.198;19.796;2023-04-24T07:07:24;4.20;;;3.70;;
52934;SDS011;38802;50.198;19.796;2023-04-24T07:09:53;5.30;;;3.50;;
52934;SDS011;38802;50.198;19.796;2023-04-24T07:12:21;3.90;;;3.60;;
52934;SDS011;38802;50.198;19.796;2023-04-24T07:14:50;4.30;;;3.20;;
52934;SDS011;38802;50.198;19.796;2023-04-24T07:17:18;4.10;;;3.40;;
52934;SDS011;38802;50.198;19.796;2023-04-24T07:19:46;8.10;;;3.30;;
52934;SDS011;38802;50.198;19.796;2023-04-24T07:22:14;7.90;;;3.30;;
52934;SDS011;38802;50.198;19.796;2023-04-24T07:24:44;4.50;;;2.80;;
52934;SDS011;38802;50.198;19.796;2023-04-24T07:27:12;7.90;;;3.80;;
52934;SDS011;38802;50.198;19.796;2023-04-24T07:29:43;4.20;;;3.60;;
52934;SDS011;38802;50.198;19.796;2023-04-24T07:32:11;4.20;;;3.60;;
52934;SDS011;38802;50.198;19.796;2023-04-24T07:34:39;3.90;;;3.30;;
52934;SDS011;38802;50.198;19.796;2023-04-24T07:37:10;5.90;;;3.60;;
52934;SDS011;38802;50.198;19.796;2023-04-24T07:39:38;4.20;;;2.90;;
52934;SDS011;38802;50.198;19.796;2023-04-24T07:42:09;6.30;;;4.50;;
52934;SDS011;38802;50.198;19.796;2023-04-24T07:44:37;3.20;;;2.80;;
52934;SDS011;38802;50.198;19.796;2023-04-24T07:47:05;4.10;;;3.30;;
52934;SDS011;38802;50.198;19.796;2023-04-24T07:49:33;4.90;;;3.20;;
52934;SDS011;38802;50.198;19.796;2023-04-24T07:52:02;4.60;;;3.40;;
52934;SDS011;38802;50.198;19.796;2023-04-24T07:54:30;5.40;;;3.70;;
52934;SDS011;38802;50.198;19.796;2023-04-24T07:56:58;5.00;;;4.30;;
52934;SDS011;38802;50.198;19.796;2023-04-24T07:59:26;4.10;;;3.70;;
52934;SDS011;38802;50.198;19.796;2023-04-24T08:01:54;5.70;;;4.90;;
52934;SDS011;38802;50.198;19.796;2023-04-24T08:04:22;5.10;;;3.90;;
52934;SDS011;38802;50.198;19.796;2023-04-24T08:06:50;5.70;;;4.30;;
52934;SDS011;38802;50.198;19.796;2023-04-24T08:09:18;5.50;;;3.80;;
52934;SDS011;38802;50.198;19.796;2023-04-24T08:11:46;7.60;;;4.90;;
52934;SDS011;38802;50.198;19.796;2023-04-24T08:14:14;5.20;;;4.30;;
52934;SDS011;38802;50.198;19.796;2023-04-24T08:16:42;5.30;;;4.00;;
52934;SDS011;38802;50.198;19.796;2023-04-24T08:19:11;12.40;;;4.20;;
52934;SDS011;38802;50.198;19.796;2023-04-24T08:21:39;7.30;;;4.70;;
52934;SDS011;38802;50.198;19.796;2023-04-24T08:24:07;18.10;;;5.10;;
52934;SDS011;38802;50.198;19.796;2023-04-24T08:26:35;4.80;;;4.20;;
52934;SDS011;38802;50.198;19.796;2023-04-24T08:29:03;5.40;;;4.40;;
52934;SDS011;38802;50.198;19.796;2023-04-24T08:31:32;4.40;;;3.90;;
52934;SDS011;38802;50.198;19.796;2023-04-24T08:34:00;6.30;;;4.90;;
52934;SDS011;38802;50.198;19.796;2023-04-24T08:36:28;9.80;;;4.50;;
52934;SDS011;38802;50.198;19.796;2023-04-24T08:39:12;5.30;;;3.90;;
52934;SDS011;38802;50.198;19.796;2023-04-24T08:41:42;7.20;;;3.80;;
52934;SDS011;38802;50.198;19.796;2023-04-24T08:44:11;8.20;;;3.90;;
52934;SDS011;38802;50.198;19.796;2023-04-24T08:46:42;4.70;;;3.60;;
52934;SDS011;38802;50.198;19.796;2023-04-24T08:49:15;7.20;;;4.20;;
52934;SDS011;38802;50.198;19.796;2023-04-24T08:51:46;9.80;;;7.50;;
52934;SDS011;38802;50.198;19.796;2023-04-24T08:54:15;6.90;;;5.80;;
52934;SDS011;38802;50.198;19.796;2023-04-24T08:56:44;5.10;;;4.10;;
52934;SDS011;38802;50.198;19.796;2023-04-24T08:59:13;7.70;;;3.40;;
52934;SDS011;38802;50.198;19.796;2023-04-24T09:01:43;6.80;;;3.20;;
52934;SDS011;38802;50.198;19.796;2023-04-24T09:04:13;6.60;;;4.20;;
52934;SDS011;38802;50.198;19.796;2023-04-24T09:06:45;7.80;;;5.80;;
52934;SDS011;38802;50.198;19.796;2023-04-24T09:09:14;4.90;;;4.00;;
52934;SDS011;38802;50.198;19.796;2023-04-24T09:11:44;8.00;;;3.60;;
52934;SDS011;38802;50.198;19.796;2023-04-24T09:14:16;8.40;;;4.00;;
52934;SDS011;38802;50.198;19.796;2023-04-24T09:16:45;6.20;;;4.10;;
52934;SDS011;38802;50.198;19.796;2023-04-24T09:19:16;6.00;;;3.70;;
52934;SDS011;38802;50.198;19.796;2023-04-24T09:21:47;6.30;;;3.30;;
52934;SDS011;38802;50.198;19.796;2023-04-24T09:24:16;3.70;;;2.70;;
52934;SDS011;38802;50.198;19.796;2023-04-24T09:26:45;5.40;;;4.40;;
52934;SDS011;38802;50.198;19.796;2023-04-24T09:29:16;5.40;;;3.00;;
52934;SDS011;38802;50.198;19.796;2023-04-24T09:35:04;3.70;;;3.30;;
52934;SDS011;38802;50.198;19.796;2023-04-24T09:40:09;3.50;;;2.80;;
52934;SDS011;38802;50.198;19.796;2023-04-24T09:42:55;4.00;;;3.00;;
52934;SDS011;38802;50.198;19.796;2023-04-24T09:45:34;3.50;;;2.70;;
52934;SDS011;38802;50.198;19.796;2023-04-24T09:48:03;3.30;;;2.30;;
52934;SDS011;38802;50.198;19.796;2023-04-24T09:50:34;3.50;;;2.30;;
52934;SDS011;38802;50.198;19.796;2023-04-24T09:53:03;3.40;;;3.10;;
52934;SDS011;38802;50.198;19.796;2023-04-24T09:55:33;3.60;;;2.90;;
52934;SDS011;38802;50.198;19.796;2023-04-24T09:58:07;4.10;;;2.60;;
52934;SDS011;38802;50.198;19.796;2023-04-24T10:00:35;2.70;;;2.20;;
52934;SDS011;38802;50.198;19.796;2023-04-24T10:03:04;3.50;;;2.40;;
52934;SDS011;38802;50.198;19.796;2023-04-24T10:05:34;5.20;;;2.70;;
52934;SDS011;38802;50.198;19.796;2023-04-24T10:08:15;3.60;;;2.40;;
52934;SDS011;38802;50.198;19.796;2023-04-24T10:10:44;3.70;;;2.40;;
52934;SDS011;38802;50.198;19.796;2023-04-24T10:13:14;5.50;;;2.60;;
52934;SDS011;38802;50.198;19.796;2023-04-24T10:15:45;3.30;;;2.80;;
52934;SDS011;38802;50.198;19.796;2023-04-24T10:18:16;3.90;;;2.40;;
52934;SDS011;38802;50.198;19.796;2023-04-24T10:20:48;2.60;;;2.40;;
52934;SDS011;38802;50.198;19.796;2023-04-24T10:23:22;3.00;;;2.70;;
52934;SDS011;38802;50.198;19.796;2023-04-24T10:25:53;4.80;;;3.20;;
52934;SDS011;38802;50.198;19.796;2023-04-24T10:28:21;4.80;;;3.10;;
52934;SDS011;38802;50.198;19.796;2023-04-24T10:30:51;6.20;;;3.10;;
52934;SDS011;38802;50.198;19.796;2023-04-24T10:33:23;4.60;;;3.30;;
52934;SDS011;38802;50.198;19.796;2023-04-24T10:35:51;4.20;;;2.90;;
52934;SDS011;38802;50.198;19.796;2023-04-24T10:38:30;3.80;;;3.10;;
52934;SDS011;38802;50.198;19.796;2023-04-24T10:41:09;8.70;;;2.70;;
52934;SDS011;38802;50.198;19.796;2023-04-24T10:43:47;4.70;;;4.20;;
52934;SDS011;38802;50.198;19.796;2023-04-24T10:46:21;4.90;;;4.20;;
52934;SDS011;38802;50.198;19.796;2023-04-24T10:48:54;6.40;;;3.80;;
52934;SDS011;38802;50.198;19.796;2023-04-24T10:51:24;11.90;;;3.10;;
52934;SDS011;38802;50.198;19.796;2023-04-24T10:56:53;5.10;;;3.20;;
52934;SDS011;38802;50.198;19.796;2023-04-24T10:59:41;7.30;;;3.30;;
52934;SDS011;38802;50.198;19.796;2023-04-24T11:02:09;3.60;;;2.90;;
52934;SDS011;38802;50.198;19.796;2023-04-24T11:04:37;5.50;;;2.70;;
52934;SDS011;38802;50.198;19.796;2023-04-24T11:07:05;5.10;;;3.40;;
52934;SDS011;38802;50.198;19.796;2023-04-24T11:09:35;5.30;;;2.80;;
52934;SDS011;38802;50.198;19.796;2023-04-24T11:12:08;2.80;;;2.60;;
52934;SDS011;38802;50.198;19.796;2023-04-24T11:17:44;2.80;;;2.50;;
52934;SDS011;38802;50.198;19.796;2023-04-24T11:20:16;5.10;;;3.90;;
52934;SDS011;38802;50.198;19.796;2023-04-24T11:22:55;3.60;;;2.70;;
52934;SDS011;38802;50.198;19.796;2023-04-24T11:25:31;3.30;;;3.00;;
52934;SDS011;38802;50.198;19.796;2023-04-24T11:28:05;4.60;;;2.60;;
52934;SDS011;38802;50.198;19.796;2023-04-24T11:30:34;2.70;;;2.50;;
52934;SDS011;38802;50.198;19.796;2023-04-24T11:33:03;3.40;;;2.60;;
52934;SDS011;38802;50.198;19.796;2023-04-24T11:35:39;3.40;;;2.90;;
52934;SDS011;38802;50.198;19.796;2023-04-24T11:38:08;5.30;;;3.60;;
52934;SDS011;38802;50.198;19.796;2023-04-24T11:40:40;3.70;;;3.10;;
52934;SDS011;38802;50.198;19.796;2023-04-24T11:43:10;3.30;;;3.00;;
52934;SDS011;38802;50.198;19.796;2023-04-24T11:45:38;3.10;;;2.90;;
52934;SDS011;38802;50.198;19.796;2023-04-24T11:48:19;3.40;;;3.10;;
52934;SDS011;38802;50.198;19.796;2023-04-24T12:17:23;6.90;;;3.00;;
52934;SDS011;38802;50.198;19.796;2023-04-24T12:20:01;3.70;;;2.90;;
52934;SDS011;38802;50.198;19.796;2023-04-24T12:22:49;3.30;;;3.00;;
52934;SDS011;38802;50.198;19.796;2023-04-24T12:25:18;5.90;;;5.40;;
52934;SDS011;38802;50.198;19.796;2023-04-24T12:27:45;6.60;;;4.20;;
52934;SDS011;38802;50.198;19.796;2023-04-24T12:30:18;8.00;;;4.90;;
52934;SDS011;38802;50.198;19.796;2023-04-24T12:32:46;33.90;;;23.60;;
52934;SDS011;38802;50.198;19.796;2023-04-24T12:35:21;4.20;;;3.80;;
52934;SDS011;38802;50.198;19.796;2023-04-24T12:37:49;10.30;;;3.90;;
52934;SDS011;38802;50.198;19.796;2023-04-24T12:40:17;7.60;;;6.80;;
52934;SDS011;38802;50.198;19.796;2023-04-24T12:42:46;13.00;;;10.30;;
52934;SDS011;38802;50.198;19.796;2023-04-24T12:45:18;8.20;;;7.30;;
52934;SDS011;38802;50.198;19.796;2023-04-24T12:47:45;12.90;;;10.50;;
52934;SDS011;38802;50.198;19.796;2023-04-24T12:50:15;6.60;;;4.80;;
52934;SDS011;38802;50.198;19.796;2023-04-24T12:52:42;9.40;;;6.30;;
52934;SDS011;38802;50.198;19.796;2023-04-24T12:55:09;21.20;;;7.80;;
52934;SDS011;38802;50.198;19.796;2023-04-24T12:57:36;8.50;;;6.20;;
52934;SDS011;38802;50.198;19.796;2023-04-24T13:00:05;8.70;;;6.50;;
52934;SDS011;38802;50.198;19.796;2023-04-24T13:02:45;5.90;;;4.10;;
52934;SDS011;38802;50.198;19.796;2023-04-24T13:05:27;4.40;;;4.00;;
52934;SDS011;38802;50.198;19.796;2023-04-24T13:07:54;7.50;;;4.00;;
52934;SDS011;38802;50.198;19.796;2023-04-24T13:10:20;11.10;;;5.40;;
52934;SDS011;38802;50.198;19.796;2023-04-24T13:12:47;15.80;;;13.90;;
52934;SDS011;38802;50.198;19.796;2023-04-24T13:15:14;17.80;;;11.10;;
52934;SDS011;38802;50.198;19.796;2023-04-24T13:17:40;7.90;;;6.40;;
52934;SDS011;38802;50.198;19.796;2023-04-24T13:20:07;7.70;;;3.80;;
52934;SDS011;38802;50.198;19.796;2023-04-24T13:22:35;7.70;;;3.60;;
52934;SDS011;38802;50.198;19.796;2023-04-24T13:25:05;8.00;;;4.80;;
52934;SDS011;38802;50.198;19.796;2023-04-24T13:27:38;8.90;;;3.90;;
52934;SDS011;38802;50.198;19.796;2023-04-24T13:30:08;3.80;;;3.50;;
52934;SDS011;38802;50.198;19.796;2023-04-24T13:32:37;5.80;;;3.30;;
52934;SDS011;38802;50.198;19.796;2023-04-24T13:35:03;8.30;;;4.30;;
52934;SDS011;38802;50.198;19.796;2023-04-24T13:37:30;6.90;;;5.10;;
52934;SDS011;38802;50.198;19.796;2023-04-24T13:39:57;9.00;;;8.20;;
52934;SDS011;38802;50.198;19.796;2023-04-24T13:45:22;5.30;;;4.30;;
52934;SDS011;38802;50.198;19.796;2023-04-24T13:47:51;6.50;;;4.10;;
52934;SDS011;38802;50.198;19.796;2023-04-24T13:50:20;5.40;;;3.90;;
52934;SDS011;38802;50.198;19.796;2023-04-24T13:52:47;8.20;;;4.00;;
52934;SDS011;38802;50.198;19.796;2023-04-24T13:55:14;7.30;;;4.10;;
52934;SDS011;38802;50.198;19.796;2023-04-24T13:57:40;5.00;;;3.80;;
52934;SDS011;38802;50.198;19.796;2023-04-24T14:00:07;17.80;;;4.60;;
52934;SDS011;38802;50.198;19.796;2023-04-24T14:02:36;6.80;;;3.70;;
52934;SDS011;38802;50.198;19.796;2023-04-24T14:05:04;4.60;;;3.90;;
52934;SDS011;38802;50.198;19.796;2023-04-24T14:07:32;5.40;;;4.30;;
52934;SDS011;38802;50.198;19.796;2023-04-24T14:09:59;8.60;;;4.00;;
52934;SDS011;38802;50.198;19.796;2023-04-24T14:12:26;12.00;;;8.70;;
52934;SDS011;38802;50.198;19.796;2023-04-24T14:14:53;11.70;;;9.20;;
52934;SDS011;38802;50.198;19.796;2023-04-24T14:17:20;13.00;;;8.10;;
52934;SDS011;38802;50.198;19.796;2023-04-24T14:19:47;2.70;;;2.30;;
52934;SDS011;38802;50.198;19.796;2023-04-24T14:22:14;3.30;;;2.50;;
52934;SDS011;38802;50.198;19.796;2023-04-24T14:24:40;7.50;;;6.90;;
52934;SDS011;38802;50.198;19.796;2023-04-24T14:27:07;7.60;;;6.70;;
52934;SDS011;38802;50.198;19.796;2023-04-24T14:29:33;3.00;;;2.70;;
52934;SDS011;38802;50.198;19.796;2023-04-24T14:32:01;4.60;;;1.70;;
52934;SDS011;38802;50.198;19.796;2023-04-24T14:34:28;4.90;;;4.40;;
52934;SDS011;38802;50.198;19.796;2023-04-24T14:36:54;74.00;;;5.60;;
52934;SDS011;38802;50.198;19.796;2023-04-24T14:39:21;29.70;;;8.70;;
52934;SDS011;38802;50.198;19.796;2023-04-24T14:41:48;36.10;;;18.90;;
52934;SDS011;38802;50.198;19.796;2023-04-24T14:44:14;48.30;;;27.50;;
52934;SDS011;38802;50.198;19.796;2023-04-24T14:46:41;12.30;;;4.30;;
52934;SDS011;38802;50.198;19.796;2023-04-24T14:49:09;32.30;;;6.90;;
52934;SDS011;38802;50.198;19.796;2023-04-24T14:51:36;81.40;;;42.40;;
52934;SDS011;38802;50.198;19.796;2023-04-24T14:54:03;48.60;;;22.70;;
52934;SDS011;38802;50.198;19.796;2023-04-24T14:56:29;11.10;;;4.40;;
52934;SDS011;38802;50.198;19.796;2023-04-24T14:58:56;7.70;;;5.90;;
52934;SDS011;38802;50.198;19.796;2023-04-24T15:01:23;9.20;;;6.30;;
52934;SDS011;38802;50.198;19.796;2023-04-24T15:03:50;7.40;;;3.80;;
52934;SDS011;38802;50.198;19.796;2023-04-24T15:06:18;10.70;;;8.20;;
52934;SDS011;38802;50.198;19.796;2023-04-24T15:08:45;42.80;;;27.00;;
52934;SDS011;38802;50.198;19.796;2023-04-24T15:11:15;80.80;;;40.40;;
52934;SDS011;38802;50.198;19.796;2023-04-24T15:13:41;81.70;;;34.00;;
52934;SDS011;38802;50.198;19.796;2023-04-24T15:16:08;71.90;;;30.10;;
52934;SDS011;38802;50.198;19.796;2023-04-24T15:18:35;66.90;;;36.90;;
52934;SDS011;38802;50.198;19.796;2023-04-24T15:21:02;30.60;;;18.10;;
52934;SDS011;38802;50.198;19.796;2023-04-24T15:23:30;5.00;;;3.50;;
52934;SDS011;38802;50.198;19.796;2023-04-24T15:26:01;13.30;;;8.40;;
52934;SDS011;38802;50.198;19.796;2023-04-24T15:28:43;13.60;;;8.60;;
52934;SDS011;38802;50.198;19.796;2023-04-24T15:31:13;13.90;;;9.40;;
52934;SDS011;38802;50.198;19.796;2023-04-24T15:33:50;8.60;;;6.10;;
52934;SDS011;38802;50.198;19.796;2023-04-24T15:36:17;4.40;;;3.70;;
52934;SDS011;38802;50.198;19.796;2023-04-24T15:41:35;8.20;;;5.20;;
52934;SDS011;38802;50.198;19.796;2023-04-24T15:44:21;4.10;;;3.30;;